Time;durP1;ratioP1;P1;durP2;ratioP2;P2;SDS_P1;SDS_P2;PMS_P1;PMS_P2;Temp;Humidity;BMP_temperature;BMP_pressure;BME280_temperature;BME280_humidity;BME280_pressure;Samples;Min_cycle;Max_cycle;Signal;HPM_P1;HPM_P2
2022/06/25 00:00:36;;;;;;;2.20;1.50;;;;;;;13.29;75.92;98771.34;104743;1274;61239;-24
2022/06/25 00:03:03;;;;;;;2.90;1.60;;;;;;;13.66;75.62;98765.89;104643;1274;61076;-24
2022/06/25 00:05:32;;;;;;;3.50;1.70;;;;;;;14.16;73.43;98766.19;104724;1274;75595;-24
2022/06/25 00:08:00;;;;;;;4.90;1.90;;;;;;;14.19;72.46;98765.33;104638;1271;77211;-24
2022/06/25 00:10:27;;;;;;;4.00;2.10;;;;;;;14.02;72.83;98770.62;104584;1274;74188;-25
2022/06/25 00:12:54;;;;;;;2.60;1.70;;;;;;;13.77;72.85;98772.77;104764;1274;61702;-25
2022/06/25 00:15:21;;;;;;;3.50;1.90;;;;;;;13.51;73.77;98778.30;105058;1274;62890;-25
2022/06/25 00:17:48;;;;;;;3.70;2.00;;;;;;;13.28;74.10;98780.02;105042;1274;75326;-25
2022/06/25 00:20:15;;;;;;;5.10;1.60;;;;;;;13.09;74.87;98781.58;105095;1272;75994;-26
2022/06/25 00:22:43;;;;;;;3.10;1.50;;;;;;;13.49;75.03;98778.52;104818;1274;74827;-25
2022/06/25 00:25:10;;;;;;;3.70;2.90;;;;;;;13.97;73.61;98778.53;104608;1274;61913;-25
2022/06/25 00:27:37;;;;;;;3.50;1.70;;;;;;;13.94;73.12;98778.63;104741;1271;61758;-25
2022/06/25 00:30:06;;;;;;;2.20;1.80;;;;;;;13.73;72.99;98773.53;104678;1271;76579;-25
2022/06/25 00:32:33;;;;;;;6.90;2.30;;;;;;;13.50;73.92;98773.88;104669;1271;75770;-25
2022/06/25 00:35:02;;;;;;;7.20;3.70;;;;;;;13.20;75.92;98770.27;104716;1271;73499;-25
2022/06/25 00:37:29;;;;;;;13.30;6.00;;;;;;;13.05;76.98;98768.89;104713;1271;63179;-25
2022/06/25 00:39:56;;;;;;;7.30;2.80;;;;;;;13.06;76.72;98764.81;104634;1274;63050;-25
2022/06/25 00:42:23;;;;;;;7.50;3.20;;;;;;;13.65;74.71;98763.88;104979;1272;75544;-25
2022/06/25 00:44:53;;;;;;;4.30;3.00;;;;;;;14.22;72.30;98762.77;104795;1274;76988;-25
2022/06/25 00:47:21;;;;;;;8.10;3.50;;;;;;;14.26;71.73;98762.86;104770;1274;75448;-25
2022/06/25 00:49:48;;;;;;;9.50;3.70;;;;;;;14.11;72.43;98768.93;104741;1273;63182;-26
2022/06/25 00:52:17;;;;;;;5.10;3.00;;;;;;;13.95;72.78;98767.04;105064;1274;62779;-25
2022/06/25 00:55:05;;;;;;;5.20;3.10;;;;;;;13.75;73.76;98772.14;104802;1274;76604;-25
2022/06/25 00:57:34;;;;;;;3.90;2.50;;;;;;;13.59;74.37;98768.82;105111;1274;77323;-25
2022/06/25 01:00:05;;;;;;;5.60;2.60;;;;;;;13.97;73.07;98769.77;104767;1274;74449;-25
2022/06/25 01:02:32;;;;;;;6.80;2.60;;;;;;;14.22;71.93;98768.52;104693;1274;62940;-25
2022/06/25 01:05:00;;;;;;;3.80;2.50;;;;;;;14.25;71.69;98770.13;104637;1274;62788;-25
2022/06/25 01:07:27;;;;;;;2.80;2.30;;;;;;;14.27;71.21;98768.52;104803;1274;76497;-25
2022/06/25 01:09:55;;;;;;;3.00;1.80;;;;;;;14.12;70.68;98771.23;104879;1274;76230;-25
2022/06/25 01:12:23;;;;;;;2.40;2.10;;;;;;;13.86;71.88;98778.42;104858;1274;74402;-25
2022/06/25 01:15:08;;;;;;;3.90;2.20;;;;;;;13.56;73.60;98777.13;105108;1274;63167;-25
2022/06/25 01:17:41;;;;;;;3.50;1.60;;;;;;;13.34;74.97;98775.73;104858;1273;62838;-24
2022/06/25 01:20:10;;;;;;;2.60;1.90;;;;;;;13.90;72.80;98776.02;104592;1274;75937;-25
2022/06/25 01:22:37;;;;;;;2.90;2.40;;;;;;;14.28;71.17;98777.48;104687;1274;76998;-25
2022/06/25 01:25:07;;;;;;;4.60;2.30;;;;;;;14.29;70.76;98778.16;104811;1273;75352;-25
2022/06/25 01:27:35;;;;;;;4.30;2.30;;;;;;;14.05;71.61;98781.95;104858;1274;63141;-25
2022/06/25 01:30:06;;;;;;;6.90;2.90;;;;;;;13.78;72.62;98781.64;104786;1274;63100;-25
2022/06/25 01:32:33;;;;;;;4.70;2.70;;;;;;;13.55;73.21;98778.63;104832;1274;75535;-25
2022/06/25 01:35:01;;;;;;;2.90;2.00;;;;;;;13.39;72.76;98781.16;104692;1274;76019;-25
2022/06/25 01:37:28;;;;;;;5.40;1.40;;;;;;;13.23;72.91;98777.66;104651;1274;75674;-25
2022/06/25 01:39:59;;;;;;;5.60;1.50;;;;;;;13.64;72.76;98781.75;104911;1270;61998;-25
2022/06/25 01:45:13;;;;;;;2.90;1.70;;;;;;;14.08;70.23;98781.55;104743;1274;75578;-25
2022/06/25 01:47:41;;;;;;;3.90;2.40;;;;;;;13.83;70.99;98781.16;104763;1274;77103;-25
2022/06/25 01:50:08;;;;;;;5.10;2.30;;;;;;;13.57;72.20;98782.98;104952;1272;75142;-25
2022/06/25 01:52:35;;;;;;;2.60;2.10;;;;;;;13.36;73.10;98786.38;104592;1274;62352;-25
2022/06/25 01:55:04;;;;;;;3.50;2.10;;;;;;;13.13;73.50;98793.97;104756;1274;62759;-25
2022/06/25 01:57:33;;;;;;;1.90;1.30;;;;;;;12.95;73.74;98790.22;104918;1274;76638;-25
2022/06/25 02:00:02;;;;;;;3.00;1.40;;;;;;;13.41;73.97;98793.77;104601;1274;76911;-25
2022/06/25 02:02:40;;;;;;;3.80;1.70;;;;;;;13.94;71.97;98799.91;104669;1274;75183;-24
2022/06/25 02:05:08;;;;;;;4.50;1.80;;;;;;;13.95;70.92;98797.57;104927;1274;61827;-25
2022/06/25 02:07:35;;;;;;;3.10;1.90;;;;;;;13.74;71.35;98798.77;104787;1274;61147;-25
2022/06/25 02:10:02;;;;;;;3.10;2.00;;;;;;;13.48;71.94;98801.09;105070;1274;76606;-25
2022/06/25 02:12:30;;;;;;;3.40;1.90;;;;;;;13.22;72.66;98800.09;104930;1274;75994;-25
2022/06/25 02:14:57;;;;;;;3.70;1.70;;;;;;;12.98;72.97;98803.19;104854;1274;74463;-25
2022/06/25 02:17:24;;;;;;;4.80;1.50;;;;;;;12.81;73.88;98808.32;105037;1274;64320;-25
2022/06/25 02:19:52;;;;;;;5.50;1.70;;;;;;;13.22;74.68;98808.83;104613;1274;63238;-25
2022/06/25 02:22:19;;;;;;;1.50;1.40;;;;;;;13.77;72.48;98810.98;104963;1274;74770;-25
2022/06/25 02:24:46;;;;;;;3.00;1.50;;;;;;;13.87;71.46;98813.19;105005;1274;75675;-25
2022/06/25 02:27:13;;;;;;;5.80;2.00;;;;;;;13.76;71.37;98813.20;105027;1274;74050;-25
2022/06/25 02:29:40;;;;;;;6.10;2.10;;;;;;;13.71;71.49;98812.47;104595;1274;63091;-25
2022/06/25 02:32:08;;;;;;;3.00;2.00;;;;;;;13.70;71.34;98813.45;104581;1274;63579;-25
2022/06/25 02:34:35;;;;;;;2.90;2.30;;;;;;;13.64;71.25;98811.77;104568;1274;76558;-25
2022/06/25 02:37:02;;;;;;;1.60;1.40;;;;;;;13.62;71.52;98812.11;104548;1274;76229;-25
2022/06/25 02:39:30;;;;;;;4.30;1.70;;;;;;;14.12;70.90;98812.79;104586;1274;74358;-25
2022/06/25 02:41:57;;;;;;;3.10;1.70;;;;;;;14.72;69.14;98810.66;104414;1274;278445;-25
2022/06/25 02:44:25;;;;;;;2.40;1.70;;;;;;;15.01;68.10;98816.81;104612;1274;63175;-25
2022/06/25 02:46:54;;;;;;;2.30;1.70;;;;;;;15.17;67.26;98818.89;104593;1274;76687;-25
2022/06/25 02:49:24;;;;;;;3.40;1.90;;;;;;;15.23;66.63;98822.23;104788;1274;75235;-25
2022/06/25 02:51:52;;;;;;;3.40;2.00;;;;;;;15.35;66.18;98821.89;104567;1274;75361;-25
2022/06/25 02:54:19;;;;;;;2.50;1.50;;;;;;;15.43;65.81;98825.52;104691;1274;62903;-25
2022/06/25 02:59:33;;;;;;;3.10;2.10;;;;;;;15.64;65.10;98825.80;105010;1273;76443;-25
2022/06/25 03:02:01;;;;;;;2.70;1.50;;;;;;;15.82;65.09;98831.95;104951;1274;77064;-25
2022/06/25 03:04:31;;;;;;;2.60;1.40;;;;;;;16.67;63.75;98829.27;104894;1274;75430;-25
2022/06/25 03:06:59;;;;;;;3.80;1.70;;;;;;;17.58;61.71;98826.23;104954;1274;63152;-25
2022/06/25 03:09:27;;;;;;;2.70;1.80;;;;;;;18.04;60.16;98827.63;104636;1274;61841;-25
2022/06/25 03:11:54;;;;;;;2.30;1.50;;;;;;;18.19;58.73;98825.05;104989;1274;76670;-25
2022/06/25 03:14:22;;;;;;;3.60;1.70;;;;;;;18.17;58.52;98826.86;104633;1274;77079;-25
2022/06/25 03:16:49;;;;;;;4.20;1.60;;;;;;;18.10;58.59;98826.06;104725;1274;75440;-25
2022/06/25 03:19:17;;;;;;;2.40;1.80;;;;;;;18.04;58.94;98826.67;104673;1276;62029;-25
2022/06/25 03:21:45;;;;;;;2.70;2.00;;;;;;;18.07;59.22;98826.39;104857;1274;63422;-25
2022/06/25 03:24:14;;;;;;;1.90;1.80;;;;;;;18.15;59.53;98825.90;104840;1274;76622;-25
2022/06/25 03:26:41;;;;;;;3.10;1.90;;;;;;;18.36;59.04;98828.88;104849;1273;76953;-25
2022/06/25 03:29:09;;;;;;;5.90;1.70;;;;;;;18.49;58.17;98826.44;104561;1274;75451;-25
2022/06/25 03:31:37;;;;;;;4.40;2.10;;;;;;;18.54;58.58;98822.05;104900;1274;62850;-25
2022/06/25 03:34:24;;;;;;;2.70;1.60;;;;;;;18.63;58.30;98823.23;104811;1274;62406;-25
2022/06/25 03:36:52;;;;;;;2.60;1.70;;;;;;;18.61;59.76;98820.16;105110;1274;76845;-25
2022/06/25 03:39:20;;;;;;;3.20;1.80;;;;;;;18.58;60.68;98819.64;105009;1274;76342;-25
2022/06/25 03:41:47;;;;;;;38.70;20.50;;;;;;;18.70;60.11;98827.05;104833;1271;74730;-25
2022/06/25 03:44:47;;;;;;;38.10;20.20;;;;;;;18.81;57.83;98825.48;104850;1274;62834;-25
2022/06/25 03:47:21;;;;;;;28.70;14.40;;;;;;;18.86;56.49;98822.67;104710;1274;62940;-25
2022/06/25 03:49:48;;;;;;;31.60;18.40;;;;;;;19.02;54.87;98823.65;104738;1274;76723;-25
2022/06/25 03:52:17;;;;;;;29.30;16.20;;;;;;;18.96;55.11;98828.89;104630;1274;75660;-25
2022/06/25 03:54:44;;;;;;;17.00;7.40;;;;;;;19.17;55.30;98831.98;104996;1272;75558;-25
2022/06/25 03:57:12;;;;;;;15.70;8.50;;;;;;;19.31;55.01;98834.48;104729;1274;63080;-25
2022/06/25 03:59:51;;;;;;;14.40;9.50;;;;;;;19.46;54.65;98838.73;104714;1273;63443;-25
2022/06/25 04:02:38;;;;;;;14.50;9.60;;;;;;;19.73;55.04;98836.63;104606;1274;76350;-25
2022/06/25 04:05:43;;;;;;;14.30;8.80;;;;;;;19.95;54.44;98836.42;104586;1274;77329;-25
2022/06/25 04:08:20;;;;;;;19.80;9.50;;;;;;;20.23;54.39;98836.02;104649;1274;75438;-25
2022/06/25 04:10:48;;;;;;;9.10;6.60;;;;;;;20.54;54.02;98837.54;104980;1274;62807;-25
2022/06/25 04:13:15;;;;;;;15.70;9.50;;;;;;;20.84;53.32;98831.73;104692;1274;62044;-25
2022/06/25 04:15:42;;;;;;;20.00;13.80;;;;;;;20.94;51.96;98832.30;104744;1271;75547;-25
2022/06/25 04:18:10;;;;;;;17.50;11.00;;;;;;;21.02;52.01;98829.96;104995;1274;76730;-25
2022/06/25 04:20:37;;;;;;;19.60;13.70;;;;;;;20.77;51.21;98828.88;104695;1273;74370;-25
2022/06/25 04:23:05;;;;;;;15.20;10.90;;;;;;;20.40;51.73;98830.50;104797;1274;62024;-25
2022/06/25 04:25:32;;;;;;;6.80;4.60;;;;;;;20.28;52.24;98835.27;104858;1274;63088;-25
2022/06/25 04:30:45;;;;;;;7.20;2.50;;;;;;;20.35;51.26;98839.39;105040;1274;75020;-25
2022/06/25 04:33:14;;;;;;;4.50;2.90;;;;;;;20.53;51.46;98836.48;104857;1274;73778;-25
2022/06/25 04:35:56;;;;;;;7.90;4.10;;;;;;;20.90;50.87;98836.41;105032;1274;62873;-25
2022/06/25 04:38:41;;;;;;;5.20;3.60;;;;;;;20.89;50.01;98835.63;104998;1274;61541;-25
2022/06/25 04:41:09;;;;;;;4.30;2.60;;;;;;;21.01;49.67;98836.96;104719;1274;76749;-25
2022/06/25 04:43:36;;;;;;;4.50;2.40;;;;;;;20.84;50.69;98839.74;104765;1274;76982;-25
2022/06/25 04:46:08;;;;;;;6.10;2.80;;;;;;;20.66;51.02;98846.33;104750;1274;75258;-24
2022/06/25 04:48:39;;;;;;;4.50;2.40;;;;;;;20.80;50.76;98845.09;104765;1274;61563;-24
2022/06/25 04:51:25;;;;;;;3.30;2.40;;;;;;;20.89;49.91;98848.16;104973;1274;62962;-24
2022/06/25 04:53:56;;;;;;;5.40;2.20;;;;;;;21.02;50.00;98851.75;104799;1274;76160;-24
2022/06/25 04:56:49;;;;;;;4.90;2.20;;;;;;;21.35;50.22;98852.38;104823;1274;76917;-24
2022/06/25 04:59:18;;;;;;;6.90;2.70;;;;;;;21.55;49.64;98856.16;105056;1274;75481;-24
2022/06/25 05:02:18;;;;;;;5.20;2.60;;;;;;;21.62;49.25;98856.23;104683;1274;61622;-24
2022/06/25 05:04:49;;;;;;;6.50;2.30;;;;;;;21.80;49.34;98857.92;105083;1274;63129;-24
2022/06/25 05:07:17;;;;;;;4.40;2.60;;;;;;;21.89;48.45;98859.27;104923;1274;74776;-24
2022/06/25 05:09:45;;;;;;;6.10;2.80;;;;;;;21.99;48.60;98860.42;104739;1274;76993;-24
2022/06/25 05:13:11;;;;;;;3.80;2.40;;;;;;;21.88;48.66;98860.71;105089;1274;75719;-24
2022/06/25 05:15:00;;;;;;;5.00;3.00;;;;;;;22.22;48.58;98859.88;105095;1274;62001;-24
2022/06/25 05:17:28;;;;;;;6.10;3.20;;;;;;;22.33;48.44;98859.98;104913;1274;61659;-24
2022/06/25 05:19:57;;;;;;;8.20;3.30;;;;;;;22.47;47.79;98858.77;104746;1274;76652;-24
2022/06/25 05:22:24;;;;;;;7.60;3.60;;;;;;;22.78;48.12;98861.73;104668;1274;76964;-23
2022/06/25 05:24:52;;;;;;;4.80;2.90;;;;;;;22.99;47.24;98866.92;104650;1274;75638;-24
2022/06/25 05:27:20;;;;;;;5.60;3.90;;;;;;;22.89;47.11;98865.05;105092;1271;62033;-24
2022/06/25 05:29:47;;;;;;;6.40;4.10;;;;;;;22.81;47.56;98864.96;104921;1271;63128;-24
2022/06/25 05:32:15;;;;;;;4.90;3.50;;;;;;;23.09;47.56;98869.21;104792;1274;76565;-23
2022/06/25 05:34:42;;;;;;;6.00;3.20;;;;;;;23.35;46.90;98873.30;104724;1272;75402;-23
2022/06/25 05:37:09;;;;;;;3.40;2.70;;;;;;;23.49;46.72;98868.62;105049;1271;74343;-23
2022/06/25 05:39:38;;;;;;;4.00;3.30;;;;;;;23.45;46.88;98873.38;104663;1274;62961;-24
2022/06/25 05:42:05;;;;;;;4.80;3.70;;;;;;;23.61;47.22;98875.98;104642;1274;61832;-24
2022/06/25 05:44:33;;;;;;;7.80;3.50;;;;;;;23.41;46.31;98874.99;104960;1274;75688;-24
2022/06/25 05:47:00;;;;;;;6.30;3.30;;;;;;;23.64;46.93;98872.94;104752;1274;75495;-23
2022/06/25 05:49:27;;;;;;;5.60;3.90;;;;;;;23.86;46.35;98878.14;105006;1271;75425;-23
2022/06/25 05:51:54;;;;;;;4.60;3.80;;;;;;;24.17;46.17;98873.13;104843;1274;63098;-24
2022/06/25 05:54:21;;;;;;;5.20;4.00;;;;;;;24.43;45.62;98874.84;104664;1274;61717;-24
2022/06/25 05:56:49;;;;;;;5.30;4.30;;;;;;;24.40;44.71;98874.83;104602;1274;76640;-23
2022/06/25 05:59:16;;;;;;;8.90;4.10;;;;;;;24.70;45.05;98877.15;104588;1274;76008;-24
2022/06/25 06:01:43;;;;;;;7.70;4.20;;;;;;;24.89;45.14;98882.20;104726;1274;75499;-23
2022/06/25 06:04:10;;;;;;;4.30;3.20;;;;;;;24.97;45.11;98886.53;104702;1274;61815;-24
2022/06/25 06:06:37;;;;;;;3.60;3.20;;;;;;;25.06;43.63;98887.32;104873;1271;63010;-23
2022/06/25 06:09:10;;;;;;;6.00;3.90;;;;;;;25.36;44.02;98887.98;104761;1274;76312;-23
2022/06/25 06:11:37;;;;;;;5.70;3.50;;;;;;;25.54;42.75;98887.23;105037;1274;76736;-23
2022/06/25 06:14:04;;;;;;;6.90;4.10;;;;;;;25.82;43.44;98888.50;105036;1274;75335;-23
2022/06/25 06:16:32;;;;;;;9.40;4.60;;;;;;;25.84;41.85;98887.91;105014;1274;63073;-23
2022/06/25 06:18:59;;;;;;;7.40;4.70;;;;;;;26.00;42.22;98889.27;105080;1274;61926;-24
2022/06/25 06:21:26;;;;;;;5.60;4.60;;;;;;;26.21;41.85;98887.59;104737;1274;76402;-23
2022/06/25 06:23:53;;;;;;;7.50;4.30;;;;;;;25.94;42.20;98886.36;104609;1275;76769;-23
2022/06/25 06:26:21;;;;;;;6.20;3.30;;;;;;;25.85;42.70;98886.83;104805;1271;75563;-23
2022/06/25 06:28:48;;;;;;;6.40;3.40;;;;;;;26.01;41.62;98886.40;104680;1273;62791;-24
2022/06/25 06:31:15;;;;;;;6.50;3.40;;;;;;;26.19;42.52;98885.39;104915;1274;63060;-23
2022/06/25 06:33:42;;;;;;;8.00;3.40;;;;;;;26.34;42.54;98887.20;104710;1274;75244;-23
2022/06/25 06:36:09;;;;;;;5.50;3.00;;;;;;;26.27;42.15;98890.21;105008;1274;77065;-24
2022/06/25 06:38:38;;;;;;;11.20;3.40;;;;;;;25.88;41.54;98891.20;105054;1274;75559;-23
2022/06/25 06:41:05;;;;;;;7.70;3.10;;;;;;;25.98;42.03;98889.74;105046;1274;62842;-23
2022/06/25 06:43:32;;;;;;;4.20;3.20;;;;;;;26.40;41.02;98887.41;104949;1274;63480;-23
2022/06/25 06:45:59;;;;;;;3.20;2.20;;;;;;;26.64;40.03;98891.45;104803;1274;75266;-23
2022/06/25 06:48:26;;;;;;;5.50;2.50;;;;;;;26.77;39.40;98884.89;105064;1274;76420;-23
2022/06/25 06:50:54;;;;;;;3.30;2.30;;;;;;;26.96;39.54;98884.97;104954;1274;75794;-23
2022/06/25 06:53:22;;;;;;;3.00;2.40;;;;;;;27.06;39.59;98888.23;104632;1274;61900;-24
2022/06/25 06:55:50;;;;;;;4.30;2.10;;;;;;;27.09;39.62;98888.17;104769;1274;61195;-24
2022/06/25 06:58:18;;;;;;;6.50;2.00;;;;;;;27.22;39.21;98893.32;105091;1274;76544;-23
2022/06/25 07:00:45;;;;;;;5.20;2.10;;;;;;;27.32;38.69;98891.97;104848;1273;76992;-24
2022/06/25 07:03:12;;;;;;;7.60;3.00;;;;;;;27.35;39.10;98896.18;105054;1274;74095;-24
2022/06/25 07:05:39;;;;;;;4.10;2.50;;;;;;;27.09;40.34;98898.80;104728;1274;63119;-23
2022/06/25 07:08:18;;;;;;;4.00;2.60;;;;;;;27.24;39.30;98897.27;104755;1274;63049;-24
2022/06/25 07:10:46;;;;;;;5.60;2.20;;;;;;;27.30;38.67;98897.75;104684;1272;76310;-23
2022/06/25 07:13:13;;;;;;;30.80;3.50;;;;;;;27.54;39.07;98899.07;105017;1274;75829;-24
2022/06/25 07:15:40;;;;;;;5.50;2.60;;;;;;;27.69;37.83;98900.78;105046;1274;74565;-22
2022/06/25 07:18:08;;;;;;;2.60;2.00;;;;;;;27.47;37.40;98902.92;105090;1271;61981;-22
2022/06/25 07:20:35;;;;;;;7.00;2.30;;;;;;;27.55;38.21;98903.36;105102;1274;61435;-22
2022/06/25 07:23:02;;;;;;;3.60;2.20;;;;;;;27.40;38.31;98898.96;104910;1274;74455;-22
2022/06/25 07:25:29;;;;;;;5.30;2.20;;;;;;;27.44;37.87;98902.03;104777;1272;77381;-22
2022/06/25 07:27:56;;;;;;;6.90;5.50;;;;;;;27.79;37.53;98904.84;104873;1271;74320;-23
2022/06/25 07:30:24;;;;;;;4.40;2.40;;;;;;;27.42;36.67;98903.38;104859;1272;61128;-23
2022/06/25 07:32:51;;;;;;;4.90;1.90;;;;;;;28.01;35.07;98900.32;104949;1274;63191;-24
2022/06/25 07:35:18;;;;;;;2.00;1.80;;;;;;;28.08;33.59;98899.19;104890;1273;75924;-24
2022/06/25 07:37:45;;;;;;;1.60;1.40;;;;;;;28.06;35.11;98901.09;104952;1274;76828;-23
2022/06/25 07:40:22;;;;;;;4.20;1.60;;;;;;;28.37;34.68;98895.42;105047;1274;74142;-24
2022/06/25 07:42:49;;;;;;;3.70;1.70;;;;;;;28.60;34.41;98897.77;104842;1274;62170;-22
2022/06/25 07:45:17;;;;;;;4.00;1.80;;;;;;;28.25;33.16;98900.00;105073;1273;62057;-22
2022/06/25 07:47:44;;;;;;;7.20;1.90;;;;;;;28.39;33.30;98899.52;104868;1274;76498;-22
2022/06/25 07:52:59;;;;;;;6.70;6.00;;;;;;;27.83;33.48;98904.17;104947;1271;75477;-22
2022/06/25 07:55:27;;;;;;;4.80;2.60;;;;;;;26.38;35.32;98902.09;104571;1271;62779;-24
2022/06/25 07:57:54;;;;;;;5.30;2.10;;;;;;;27.12;36.05;98902.36;104998;1272;63088;-24
2022/06/25 08:00:22;;;;;;;6.10;2.00;;;;;;;27.26;35.54;98895.90;104723;1271;75194;-22
2022/06/25 08:02:49;;;;;;;6.70;2.20;;;;;;;26.61;36.78;98896.09;104749;1274;76222;-22
2022/06/25 08:05:16;;;;;;;3.50;2.00;;;;;;;26.37;35.78;98903.61;105015;1272;74346;-25
2022/06/25 08:07:45;;;;;;;6.90;3.60;;;;;;;26.65;35.73;98899.44;104806;1274;62813;-23
2022/06/25 08:10:13;;;;;;;3.90;1.90;;;;;;;26.86;35.09;98899.95;104858;1273;61993;-24
2022/06/25 08:12:40;;;;;;;4.40;2.00;;;;;;;27.22;35.04;98902.62;104538;1274;76892;-24
2022/06/25 08:15:09;;;;;;;12.60;6.10;;;;;;;27.73;34.22;98904.95;105137;1271;76875;-22
2022/06/25 08:17:37;;;;;;;6.40;2.30;;;;;;;27.67;34.38;98904.58;104865;1274;74082;-22
2022/06/25 08:20:05;;;;;;;4.40;2.20;;;;;;;27.40;33.89;98904.41;105064;1274;62001;-22
2022/06/25 08:22:32;;;;;;;9.20;2.00;;;;;;;27.18;34.29;98903.94;104902;1274;62787;-22
2022/06/25 08:24:59;;;;;;;6.80;2.00;;;;;;;27.42;33.82;98904.86;104920;1274;75410;-24
2022/06/25 08:27:27;;;;;;;4.80;1.70;;;;;;;27.04;34.27;98902.98;104849;1272;76746;-24
2022/06/25 08:29:54;;;;;;;6.50;1.70;;;;;;;27.17;34.59;98904.62;104677;1273;75470;-23
2022/06/25 08:32:21;;;;;;;7.40;3.20;;;;;;;27.26;34.89;98905.27;104753;1274;61125;-25
2022/06/25 08:34:48;;;;;;;4.10;2.70;;;;;;;27.17;34.75;98902.42;104748;1274;62576;-24
2022/06/25 08:37:15;;;;;;;10.90;7.10;;;;;;;26.06;35.65;98904.34;104939;1274;76295;-24
2022/06/25 08:39:43;;;;;;;9.10;4.90;;;;;;;25.69;37.10;98900.52;104913;1274;77543;-23
2022/06/25 08:42:10;;;;;;;5.00;2.00;;;;;;;26.38;36.96;98905.60;104867;1274;74579;-24
2022/06/25 08:44:37;;;;;;;5.60;1.80;;;;;;;26.88;35.09;98909.65;105049;1272;61766;-24
2022/06/25 08:47:04;;;;;;;2.40;1.80;;;;;;;27.32;36.10;98911.22;105070;1274;63261;-22
2022/06/25 08:49:33;;;;;;;10.90;5.80;;;;;;;27.68;34.12;98914.76;104742;1274;76597;-24
2022/06/25 08:52:01;;;;;;;4.70;2.90;;;;;;;27.43;35.11;98912.85;104651;1274;76083;-23
2022/06/25 08:54:28;;;;;;;2.90;2.10;;;;;;;26.45;35.14;98910.05;104755;1274;74419;-24
2022/06/25 08:56:55;;;;;;;5.10;2.10;;;;;;;26.62;34.96;98907.01;104762;1275;63163;-23
2022/06/25 08:59:23;;;;;;;1.80;1.70;;;;;;;26.53;35.48;98906.56;104935;1275;61634;-25
2022/06/25 09:01:50;;;;;;;6.60;2.00;;;;;;;26.54;35.04;98909.83;104862;1274;75246;-24
2022/06/25 09:04:17;;;;;;;2.60;1.90;;;;;;;26.84;35.30;98910.36;104544;1277;76711;-24
2022/06/25 09:06:44;;;;;;;5.90;2.10;;;;;;;27.22;34.47;98906.69;104734;1274;74331;-24
2022/06/25 09:09:13;;;;;;;2.50;1.50;;;;;;;27.45;34.71;98903.02;104771;1274;63178;-25
2022/06/25 09:11:50;;;;;;;2.30;1.50;;;;;;;27.25;33.96;98908.34;104631;1274;61942;-24
2022/06/25 09:14:22;;;;;;;2.90;1.50;;;;;;;27.58;34.25;98907.45;104751;1275;75515;-22
2022/06/25 09:16:57;;;;;;;5.20;1.60;;;;;;;28.06;33.16;98904.63;104860;1274;77159;-22
2022/06/25 09:19:38;;;;;;;2.50;1.70;;;;;;;27.69;34.21;98902.71;104861;1274;74157;-22
2022/06/25 09:22:07;;;;;;;6.80;2.60;;;;;;;26.90;34.58;98901.45;104716;1275;63301;-22
2022/06/25 09:24:44;;;;;;;6.40;1.70;;;;;;;26.81;35.56;98903.79;104696;1275;63010;-25
2022/06/25 09:27:12;;;;;;;4.30;1.80;;;;;;;26.93;34.87;98900.30;104702;1274;76645;-25
2022/06/25 09:29:42;;;;;;;2.20;1.40;;;;;;;26.82;34.22;98900.86;104895;1274;76936;-24
2022/06/25 09:32:10;;;;;;;3.90;1.70;;;;;;;26.78;35.13;98902.17;104850;1274;74395;-23
2022/06/25 09:34:38;;;;;;;3.90;1.70;;;;;;;26.39;34.72;98902.30;104992;1274;62133;-22
2022/06/25 09:37:27;;;;;;;2.40;1.40;;;;;;;26.30;35.70;98901.72;104793;1274;62164;-25
2022/06/25 09:39:55;;;;;;;2.30;1.70;;;;;;;26.73;35.51;98901.15;104636;1274;75220;-22
2022/06/25 09:42:30;;;;;;;4.30;1.90;;;;;;;27.20;34.91;98896.60;104792;1274;75816;-22
2022/06/25 09:45:04;;;;;;;3.70;2.00;;;;;;;27.79;35.45;98895.57;104850;1274;75522;-22
2022/06/25 09:47:45;;;;;;;4.10;2.80;;;;;;;27.49;33.46;98898.61;104726;1275;62910;-24
2022/06/25 09:50:19;;;;;;;8.40;3.90;;;;;;;26.19;35.54;98895.72;104801;1274;61150;-22
2022/06/25 09:52:55;;;;;;;3.30;1.90;;;;;;;26.09;35.68;98906.71;104643;1274;75869;-22
2022/06/25 09:55:24;;;;;;;3.70;1.50;;;;;;;26.25;35.57;98905.24;104692;1274;76880;-25
2022/06/25 09:57:52;;;;;;;5.90;1.40;;;;;;;26.27;35.35;98909.81;104581;1274;74147;-25
2022/06/25 10:00:20;;;;;;;1.80;1.50;;;;;;;26.51;35.21;98897.76;104762;1277;63139;-24
2022/06/25 10:02:48;;;;;;;3.00;2.10;;;;;;;27.16;34.08;98895.51;104689;1275;61732;-25
2022/06/25 10:05:23;;;;;;;3.20;1.50;;;;;;;27.69;33.94;98890.66;104893;1274;75228;-25
2022/06/25 10:08:00;;;;;;;4.40;1.90;;;;;;;27.74;33.63;98890.46;104702;1277;76089;-26
2022/06/25 10:10:30;;;;;;;4.00;2.50;;;;;;;27.52;33.46;98893.45;104967;1274;74479;-25
2022/06/25 10:12:57;;;;;;;3.20;2.00;;;;;;;27.44;33.02;98894.70;104696;1274;62641;-25
2022/06/25 10:15:24;;;;;;;3.50;1.80;;;;;;;27.10;32.85;98896.76;104633;1274;61316;-24
2022/06/25 10:17:51;;;;;;;12.70;7.40;;;;;;;26.62;33.62;98897.02;104624;1275;76633;-27
2022/06/25 10:20:19;;;;;;;5.70;2.60;;;;;;;27.42;34.02;98897.54;104769;1274;77037;-25
2022/06/25 10:22:48;;;;;;;3.00;2.30;;;;;;;28.15;33.00;98889.58;104691;1274;75286;-26
2022/06/25 10:25:19;;;;;;;3.50;1.80;;;;;;;27.93;33.27;98890.77;104762;1277;62837;-26
2022/06/25 10:27:48;;;;;;;4.30;1.60;;;;;;;27.67;32.94;98896.88;104992;1274;61958;-25
2022/06/25 10:30:35;;;;;;;3.40;1.70;;;;;;;27.64;33.06;98894.98;104771;1275;75421;-25
2022/06/25 10:33:03;;;;;;;3.50;2.00;;;;;;;28.32;33.19;98892.92;104782;1274;75658;-25
2022/06/25 10:35:37;;;;;;;3.20;1.70;;;;;;;28.51;32.27;98895.23;104886;1274;75338;-26
2022/06/25 10:38:16;;;;;;;3.40;1.80;;;;;;;28.47;32.76;98896.41;104987;1275;63077;-23
2022/06/25 10:42:58;;;;;;;4.60;3.10;;;;;;;28.83;32.29;98897.81;104654;1275;61701;-25
2022/06/25 10:43:52;;;;;;;9.40;1.70;;;;;;;28.59;32.15;98898.21;104728;1274;76316;-26
2022/06/25 10:46:19;;;;;;;3.80;1.50;;;;;;;28.02;32.42;98898.19;105049;1274;77060;-24
2022/06/25 10:48:59;;;;;;;2.80;1.40;;;;;;;27.80;33.41;98895.34;104808;1271;74287;-24
2022/06/25 10:51:28;;;;;;;3.30;1.50;;;;;;;27.42;34.84;98895.23;104980;1274;62822;-24
2022/06/25 10:53:57;;;;;;;2.50;1.60;;;;;;;27.38;34.14;98892.83;104872;1274;63008;-27
2022/06/25 10:56:24;;;;;;;1.70;1.50;;;;;;;27.74;32.85;98892.77;104814;1275;76825;-24
2022/06/25 10:58:52;;;;;;;2.60;1.40;;;;;;;27.77;32.70;98888.27;104836;1271;77370;-24
2022/06/25 11:01:21;;;;;;;4.20;1.60;;;;;;;28.00;32.14;98884.45;104814;1274;75308;-24
2022/06/25 11:03:53;;;;;;;3.10;1.20;;;;;;;28.28;31.93;98886.08;104781;1271;63117;-24
2022/06/25 11:06:20;;;;;;;1.90;1.60;;;;;;;28.76;31.34;98887.90;104922;1274;63107;-26
2022/06/25 11:08:48;;;;;;;5.80;1.80;;;;;;;29.00;30.86;98886.92;104829;1274;76650;-26
2022/06/25 11:11:26;;;;;;;4.00;2.50;;;;;;;29.01;30.88;98885.89;105092;1274;76490;-26
2022/06/25 11:13:54;;;;;;;2.10;1.60;;;;;;;29.52;32.00;98882.52;104773;1271;75430;-26
2022/06/25 11:16:22;;;;;;;2.70;1.70;;;;;;;30.07;30.89;98881.38;105119;1274;61793;-25
2022/06/25 11:18:51;;;;;;;1.90;1.40;;;;;;;30.35;29.87;98879.36;104724;1274;61891;-26
2022/06/25 11:21:38;;;;;;;3.20;2.60;;;;;;;29.74;30.00;98883.20;104709;1275;75729;-24
2022/06/25 11:24:15;;;;;;;4.00;2.50;;;;;;;28.53;30.48;98882.67;104661;1271;75919;-22
2022/06/25 11:29:48;;;;;;;10.70;4.60;;;;;;;27.00;33.85;98887.60;104464;1272;63555;-25
2022/06/25 11:32:26;;;;;;;4.20;3.20;;;;;;;27.05;34.56;98885.15;104913;1272;62890;-23
2022/06/25 11:34:56;;;;;;;10.20;3.00;;;;;;;27.57;34.44;98884.13;104730;1274;74271;-22
2022/06/25 11:37:24;;;;;;;2.40;2.00;;;;;;;27.98;33.20;98878.11;104634;1274;77066;-24
2022/06/25 11:39:51;;;;;;;6.60;3.00;;;;;;;27.45;32.98;98876.54;104614;1274;74638;-25
2022/06/25 11:42:19;;;;;;;3.20;1.80;;;;;;;27.00;33.55;98880.98;104694;1271;61342;-24
2022/06/25 11:44:53;;;;;;;7.70;2.40;;;;;;;27.01;33.39;98888.33;104740;1274;61245;-23
2022/06/25 11:47:28;;;;;;;5.70;2.90;;;;;;;26.73;34.27;98887.58;104822;1272;76370;-24
2022/06/25 11:49:56;;;;;;;6.10;2.80;;;;;;;26.05;35.58;98888.36;104858;1271;77097;-25